sensor_id;sensor_type;location;lat;lon;timestamp;temperature;humidity
29453;DHT22;16424;50.956;5.320;2024-03-02T00:00:38;8.90;99.90
29453;DHT22;16424;50.956;5.320;2024-03-02T00:03:07;8.80;99.90
29453;DHT22;16424;50.956;5.320;2024-03-02T00:05:35;8.60;99.90
29453;DHT22;16424;50.956;5.320;2024-03-02T00:08:00;8.70;99.90
29453;DHT22;16424;50.956;5.320;2024-03-02T00:10:35;8.70;99.90
29453;DHT22;16424;50.956;5.320;2024-03-02T00:13:02;8.70;99.90
29453;DHT22;16424;50.956;5.320;2024-03-02T00:18:12;8.80;99.90
29453;DHT22;16424;50.956;5.320;2024-03-02T00:20:39;8.80;99.90
29453;DHT22;16424;50.956;5.320;2024-03-02T00:23:06;8.90;99.90
29453;DHT22;16424;50.956;5.320;2024-03-02T00:25:44;8.90;99.90
29453;DHT22;16424;50.956;5.320;2024-03-02T00:28:31;8.70;99.90
29453;DHT22;16424;50.956;5.320;2024-03-02T00:33:41;8.40;99.90
29453;DHT22;16424;50.956;5.320;2024-03-02T00:36:07;8.40;99.90
29453;DHT22;16424;50.956;5.320;2024-03-02T00:38:34;8.50;99.90
29453;DHT22;16424;50.956;5.320;2024-03-02T00:41:04;8.50;99.90
29453;DHT22;16424;50.956;5.320;2024-03-02T00:43:56;8.50;99.90
29453;DHT22;16424;50.956;5.320;2024-03-02T00:46:22;8.60;99.90
29453;DHT22;16424;50.956;5.320;2024-03-02T00:51:14;8.60;99.90
29453;DHT22;16424;50.956;5.320;2024-03-02T00:53:40;8.70;99.90
29453;DHT22;16424;50.956;5.320;2024-03-02T00:56:09;8.70;99.90
29453;DHT22;16424;50.956;5.320;2024-03-02T00:58:35;8.60;99.90
29453;DHT22;16424;50.956;5.320;2024-03-02T01:01:01;8.60;99.90
29453;DHT22;16424;50.956;5.320;2024-03-02T01:03:27;8.70;99.90
29453;DHT22;16424;50.956;5.320;2024-03-02T01:05:52;8.70;99.90
29453;DHT22;16424;50.956;5.320;2024-03-02T01:08:19;8.70;99.90
29453;DHT22;16424;50.956;5.320;2024-03-02T01:10:45;8.70;99.90
29453;DHT22;16424;50.956;5.320;2024-03-02T01:13:10;8.70;99.90
29453;DHT22;16424;50.956;5.320;2024-03-02T01:15:36;8.60;99.90
29453;DHT22;16424;50.956;5.320;2024-03-02T01:18:02;8.60;99.90
29453;DHT22;16424;50.956;5.320;2024-03-02T01:20:28;8.70;99.90
29453;DHT22;16424;50.956;5.320;2024-03-02T01:22:54;8.70;99.90
29453;DHT22;16424;50.956;5.320;2024-03-02T01:25:19;8.70;99.90
29453;DHT22;16424;50.956;5.320;2024-03-02T01:27:45;8.80;99.90
29453;DHT22;16424;50.956;5.320;2024-03-02T01:30:11;8.70;99.90
29453;DHT22;16424;50.956;5.320;2024-03-02T01:32:40;8.60;99.90
29453;DHT22;16424;50.956;5.320;2024-03-02T01:35:06;8.60;99.90
29453;DHT22;16424;50.956;5.320;2024-03-02T01:37:32;8.70;99.90
29453;DHT22;16424;50.956;5.320;2024-03-02T01:39:58;8.70;99.90
29453;DHT22;16424;50.956;5.320;2024-03-02T01:42:24;8.80;99.90
29453;DHT22;16424;50.956;5.320;2024-03-02T01:44:50;8.70;99.90
29453;DHT22;16424;50.956;5.320;2024-03-02T01:47:16;8.80;99.90
29453;DHT22;16424;50.956;5.320;2024-03-02T01:49:42;8.90;99.90
29453;DHT22;16424;50.956;5.320;2024-03-02T01:52:07;8.80;99.90
29453;DHT22;16424;50.956;5.320;2024-03-02T01:54:33;8.80;99.90
29453;DHT22;16424;50.956;5.320;2024-03-02T01:56:59;8.80;99.90
29453;DHT22;16424;50.956;5.320;2024-03-02T01:59:25;8.90;99.90
29453;DHT22;16424;50.956;5.320;2024-03-02T02:01:51;8.90;99.90
29453;DHT22;16424;50.956;5.320;2024-03-02T02:04:17;8.90;99.90
29453;DHT22;16424;50.956;5.320;2024-03-02T02:06:44;8.80;99.90
29453;DHT22;16424;50.956;5.320;2024-03-02T02:09:10;8.70;99.90
29453;DHT22;16424;50.956;5.320;2024-03-02T02:11:35;8.70;99.90
29453;DHT22;16424;50.956;5.320;2024-03-02T02:14:01;8.70;99.90
29453;DHT22;16424;50.956;5.320;2024-03-02T02:16:27;8.80;99.90
29453;DHT22;16424;50.956;5.320;2024-03-02T02:18:52;8.80;99.90
29453;DHT22;16424;50.956;5.320;2024-03-02T02:21:22;8.90;99.90
29453;DHT22;16424;50.956;5.320;2024-03-02T02:23:48;8.70;99.90
29453;DHT22;16424;50.956;5.320;2024-03-02T02:26:15;8.70;99.90
29453;DHT22;16424;50.956;5.320;2024-03-02T02:28:41;8.70;99.90
29453;DHT22;16424;50.956;5.320;2024-03-02T02:31:13;8.60;99.90
29453;DHT22;16424;50.956;5.320;2024-03-02T02:33:42;8.40;99.90
29453;DHT22;16424;50.956;5.320;2024-03-02T02:36:07;8.30;99.90
29453;DHT22;16424;50.956;5.320;2024-03-02T02:38:37;8.30;99.90
29453;DHT22;16424;50.956;5.320;2024-03-02T02:41:03;8.30;99.90
29453;DHT22;16424;50.956;5.320;2024-03-02T02:43:29;8.40;99.90
29453;DHT22;16424;50.956;5.320;2024-03-02T02:45:54;8.40;99.90
29453;DHT22;16424;50.956;5.320;2024-03-02T02:48:20;8.40;99.90
29453;DHT22;16424;50.956;5.320;2024-03-02T02:50:46;8.30;99.90
29453;DHT22;16424;50.956;5.320;2024-03-02T02:53:11;8.20;99.90
29453;DHT22;16424;50.956;5.320;2024-03-02T02:55:39;8.30;99.90
29453;DHT22;16424;50.956;5.320;2024-03-02T02:58:09;8.30;99.90
29453;DHT22;16424;50.956;5.320;2024-03-02T03:00:35;8.40;99.90
29453;DHT22;16424;50.956;5.320;2024-03-02T03:03:02;8.30;99.90
29453;DHT22;16424;50.956;5.320;2024-03-02T03:05:28;8.40;99.90
29453;DHT22;16424;50.956;5.320;2024-03-02T03:07:53;8.40;99.90
29453;DHT22;16424;50.956;5.320;2024-03-02T03:10:19;8.30;99.90
29453;DHT22;16424;50.956;5.320;2024-03-02T03:12:47;8.20;99.90
29453;DHT22;16424;50.956;5.320;2024-03-02T03:15:13;8.20;99.90
29453;DHT22;16424;50.956;5.320;2024-03-02T03:17:39;8.20;99.90
29453;DHT22;16424;50.956;5.320;2024-03-02T03:20:06;8.20;99.90
29453;DHT22;16424;50.956;5.320;2024-03-02T03:22:35;8.20;99.90
29453;DHT22;16424;50.956;5.320;2024-03-02T03:25:01;8.10;99.90
29453;DHT22;16424;50.956;5.320;2024-03-02T03:27:27;8.20;99.90
29453;DHT22;16424;50.956;5.320;2024-03-02T03:29:53;8.30;99.90
29453;DHT22;16424;50.956;5.320;2024-03-02T03:32:19;8.20;99.90
29453;DHT22;16424;50.956;5.320;2024-03-02T03:34:45;8.20;99.90
29453;DHT22;16424;50.956;5.320;2024-03-02T03:37:11;8.20;99.90
29453;DHT22;16424;50.956;5.320;2024-03-02T03:39:36;8.20;99.90
29453;DHT22;16424;50.956;5.320;2024-03-02T03:42:02;8.20;99.90
29453;DHT22;16424;50.956;5.320;2024-03-02T03:44:28;8.10;99.90
29453;DHT22;16424;50.956;5.320;2024-03-02T03:46:53;8.10;99.90
29453;DHT22;16424;50.956;5.320;2024-03-02T03:49:19;8.00;99.90
29453;DHT22;16424;50.956;5.320;2024-03-02T03:51:45;7.90;99.90
29453;DHT22;16424;50.956;5.320;2024-03-02T03:54:10;7.90;99.90
29453;DHT22;16424;50.956;5.320;2024-03-02T03:56:37;8.00;99.90
29453;DHT22;16424;50.956;5.320;2024-03-02T03:59:02;8.00;99.90
29453;DHT22;16424;50.956;5.320;2024-03-02T04:01:28;8.00;99.90
29453;DHT22;16424;50.956;5.320;2024-03-02T04:03:54;8.00;99.90
29453;DHT22;16424;50.956;5.320;2024-03-02T04:06:20;8.00;99.90
29453;DHT22;16424;50.956;5.320;2024-03-02T04:08:46;8.10;99.90
29453;DHT22;16424;50.956;5.320;2024-03-02T04:11:11;8.20;99.90
29453;DHT22;16424;50.956;5.320;2024-03-02T04:13:37;8.20;99.90
29453;DHT22;16424;50.956;5.320;2024-03-02T04:16:04;8.10;99.90
29453;DHT22;16424;50.956;5.320;2024-03-02T04:18:30;8.00;99.90
29453;DHT22;16424;50.956;5.320;2024-03-02T04:20:57;8.00;99.90
29453;DHT22;16424;50.956;5.320;2024-03-02T04:23:27;8.10;99.90
29453;DHT22;16424;50.956;5.320;2024-03-02T04:25:52;8.20;99.90
29453;DHT22;16424;50.956;5.320;2024-03-02T04:28:18;8.10;99.90
29453;DHT22;16424;50.956;5.320;2024-03-02T04:30:44;8.00;99.90
29453;DHT22;16424;50.956;5.320;2024-03-02T04:33:09;7.80;99.90
29453;DHT22;16424;50.956;5.320;2024-03-02T04:35:39;7.80;99.90
29453;DHT22;16424;50.956;5.320;2024-03-02T04:38:04;7.70;99.90
29453;DHT22;16424;50.956;5.320;2024-03-02T04:40:30;7.80;99.90
29453;DHT22;16424;50.956;5.320;2024-03-02T04:42:57;7.60;99.90
29453;DHT22;16424;50.956;5.320;2024-03-02T04:45:24;7.70;99.90
29453;DHT22;16424;50.956;5.320;2024-03-02T04:47:50;7.80;99.90
29453;DHT22;16424;50.956;5.320;2024-03-02T04:50:15;7.90;99.90
29453;DHT22;16424;50.956;5.320;2024-03-02T04:52:41;8.00;99.90
29453;DHT22;16424;50.956;5.320;2024-03-02T04:55:07;8.00;99.90
29453;DHT22;16424;50.956;5.320;2024-03-02T04:57:43;7.90;99.90
29453;DHT22;16424;50.956;5.320;2024-03-02T05:00:09;7.90;99.90
29453;DHT22;16424;50.956;5.320;2024-03-02T05:02:36;7.80;99.90
29453;DHT22;16424;50.956;5.320;2024-03-02T05:05:03;7.80;99.90
29453;DHT22;16424;50.956;5.320;2024-03-02T05:07:28;7.80;99.90
29453;DHT22;16424;50.956;5.320;2024-03-02T05:09:54;7.70;99.90
29453;DHT22;16424;50.956;5.320;2024-03-02T05:12:20;7.70;99.90
29453;DHT22;16424;50.956;5.320;2024-03-02T05:15:04;7.60;99.90
29453;DHT22;16424;50.956;5.320;2024-03-02T05:17:31;7.50;99.90
29453;DHT22;16424;50.956;5.320;2024-03-02T05:19:57;7.50;99.90
29453;DHT22;16424;50.956;5.320;2024-03-02T05:22:22;7.40;99.90
29453;DHT22;16424;50.956;5.320;2024-03-02T05:24:48;7.30;99.90
29453;DHT22;16424;50.956;5.320;2024-03-02T05:27:14;7.40;99.90
29453;DHT22;16424;50.956;5.320;2024-03-02T05:29:40;7.40;99.90
29453;DHT22;16424;50.956;5.320;2024-03-02T05:32:06;7.30;99.90
29453;DHT22;16424;50.956;5.320;2024-03-02T05:34:32;7.30;99.90
29453;DHT22;16424;50.956;5.320;2024-03-02T05:37:00;7.30;99.90
29453;DHT22;16424;50.956;5.320;2024-03-02T05:39:25;7.20;99.90
29453;DHT22;16424;50.956;5.320;2024-03-02T05:41:51;7.20;99.90
29453;DHT22;16424;50.956;5.320;2024-03-02T05:44:17;7.20;99.90
29453;DHT22;16424;50.956;5.320;2024-03-02T05:46:43;7.20;99.90
29453;DHT22;16424;50.956;5.320;2024-03-02T05:49:10;7.30;99.90
29453;DHT22;16424;50.956;5.320;2024-03-02T05:51:35;7.20;99.90
29453;DHT22;16424;50.956;5.320;2024-03-02T05:54:01;7.10;99.90
29453;DHT22;16424;50.956;5.320;2024-03-02T05:56:27;7.10;99.90
29453;DHT22;16424;50.956;5.320;2024-03-02T05:58:53;7.10;99.90
29453;DHT22;16424;50.956;5.320;2024-03-02T06:01:33;7.20;99.90
29453;DHT22;16424;50.956;5.320;2024-03-02T06:03:58;7.30;99.90
29453;DHT22;16424;50.956;5.320;2024-03-02T06:06:24;7.20;99.90
29453;DHT22;16424;50.956;5.320;2024-03-02T06:08:50;7.20;99.90
29453;DHT22;16424;50.956;5.320;2024-03-02T06:11:16;7.30;99.90
29453;DHT22;16424;50.956;5.320;2024-03-02T06:13:42;7.20;99.90
29453;DHT22;16424;50.956;5.320;2024-03-02T06:16:08;7.20;99.90
29453;DHT22;16424;50.956;5.320;2024-03-02T06:18:35;7.20;99.90
29453;DHT22;16424;50.956;5.320;2024-03-02T06:21:00;7.20;99.90
29453;DHT22;16424;50.956;5.320;2024-03-02T06:23:28;7.30;99.90
29453;DHT22;16424;50.956;5.320;2024-03-02T06:25:54;7.40;99.90
29453;DHT22;16424;50.956;5.320;2024-03-02T06:28:20;7.40;99.90
29453;DHT22;16424;50.956;5.320;2024-03-02T06:30:46;7.30;99.90
29453;DHT22;16424;50.956;5.320;2024-03-02T06:33:11;7.30;99.90
29453;DHT22;16424;50.956;5.320;2024-03-02T06:35:37;7.30;99.90
29453;DHT22;16424;50.956;5.320;2024-03-02T06:38:03;7.30;99.90
29453;DHT22;16424;50.956;5.320;2024-03-02T06:40:29;7.40;99.90
29453;DHT22;16424;50.956;5.320;2024-03-02T06:42:54;7.40;99.90
29453;DHT22;16424;50.956;5.320;2024-03-02T06:45:20;7.40;99.90
29453;DHT22;16424;50.956;5.320;2024-03-02T06:47:46;7.30;99.90
29453;DHT22;16424;50.956;5.320;2024-03-02T06:50:11;7.40;99.90
29453;DHT22;16424;50.956;5.320;2024-03-02T06:52:37;7.40;99.90
29453;DHT22;16424;50.956;5.320;2024-03-02T06:55:04;7.60;99.90
29453;DHT22;16424;50.956;5.320;2024-03-02T06:57:30;7.60;99.90
29453;DHT22;16424;50.956;5.320;2024-03-02T06:59:56;7.70;99.90
29453;DHT22;16424;50.956;5.320;2024-03-02T07:02:24;7.70;99.90
29453;DHT22;16424;50.956;5.320;2024-03-02T07:04:52;7.70;99.90
29453;DHT22;16424;50.956;5.320;2024-03-02T07:07:18;8.00;99.90
29453;DHT22;16424;50.956;5.320;2024-03-02T07:09:44;7.90;99.90
29453;DHT22;16424;50.956;5.320;2024-03-02T07:12:09;7.90;99.90
29453;DHT22;16424;50.956;5.320;2024-03-02T07:14:35;8.00;99.90
29453;DHT22;16424;50.956;5.320;2024-03-02T07:17:22;7.90;99.90
29453;DHT22;16424;50.956;5.320;2024-03-02T07:19:48;7.90;99.90
29453;DHT22;16424;50.956;5.320;2024-03-02T07:22:13;7.80;99.90
29453;DHT22;16424;50.956;5.320;2024-03-02T07:24:42;7.70;99.90
29453;DHT22;16424;50.956;5.320;2024-03-02T07:27:12;7.70;99.90
29453;DHT22;16424;50.956;5.320;2024-03-02T07:29:39;7.80;99.90
29453;DHT22;16424;50.956;5.320;2024-03-02T07:32:05;7.70;99.90
29453;DHT22;16424;50.956;5.320;2024-03-02T07:34:31;7.80;99.90
29453;DHT22;16424;50.956;5.320;2024-03-02T07:36:57;7.70;99.90
29453;DHT22;16424;50.956;5.320;2024-03-02T07:39:23;7.70;99.90
29453;DHT22;16424;50.956;5.320;2024-03-02T07:41:49;7.70;99.90
29453;DHT22;16424;50.956;5.320;2024-03-02T07:44:15;7.80;99.90
29453;DHT22;16424;50.956;5.320;2024-03-02T07:46:47;7.80;99.90
29453;DHT22;16424;50.956;5.320;2024-03-02T07:49:15;8.00;99.90
29453;DHT22;16424;50.956;5.320;2024-03-02T07:51:41;8.30;99.90
29453;DHT22;16424;50.956;5.320;2024-03-02T07:54:07;8.70;99.90
29453;DHT22;16424;50.956;5.320;2024-03-02T07:56:33;9.40;99.90
29453;DHT22;16424;50.956;5.320;2024-03-02T07:58:59;9.70;99.90
29453;DHT22;16424;50.956;5.320;2024-03-02T08:01:30;10.20;99.90
29453;DHT22;16424;50.956;5.320;2024-03-02T08:04:00;10.50;99.90
29453;DHT22;16424;50.956;5.320;2024-03-02T08:06:27;10.50;99.90
29453;DHT22;16424;50.956;5.320;2024-03-02T08:09:02;10.30;99.90
29453;DHT22;16424;50.956;5.320;2024-03-02T08:11:33;10.50;99.90
29453;DHT22;16424;50.956;5.320;2024-03-02T08:13:59;10.50;99.90
29453;DHT22;16424;50.956;5.320;2024-03-02T08:16:25;10.60;99.90
29453;DHT22;16424;50.956;5.320;2024-03-02T08:18:51;11.10;99.90
29453;DHT22;16424;50.956;5.320;2024-03-02T08:21:17;11.10;99.90
29453;DHT22;16424;50.956;5.320;2024-03-02T08:23:43;10.80;99.90
29453;DHT22;16424;50.956;5.320;2024-03-02T08:26:09;10.90;99.90
29453;DHT22;16424;50.956;5.320;2024-03-02T08:28:35;11.00;99.90
29453;DHT22;16424;50.956;5.320;2024-03-02T08:31:06;10.40;99.90
29453;DHT22;16424;50.956;5.320;2024-03-02T08:33:32;10.60;99.90
29453;DHT22;16424;50.956;5.320;2024-03-02T08:35:58;11.00;99.90
29453;DHT22;16424;50.956;5.320;2024-03-02T08:38:24;11.30;99.90
29453;DHT22;16424;50.956;5.320;2024-03-02T08:40:50;11.50;99.90
29453;DHT22;16424;50.956;5.320;2024-03-02T08:43:15;11.50;99.90
29453;DHT22;16424;50.956;5.320;2024-03-02T08:45:41;11.00;99.90
29453;DHT22;16424;50.956;5.320;2024-03-02T08:48:08;10.90;99.90
29453;DHT22;16424;50.956;5.320;2024-03-02T08:50:34;10.30;99.90
29453;DHT22;16424;50.956;5.320;2024-03-02T08:53:00;10.70;99.90
29453;DHT22;16424;50.956;5.320;2024-03-02T08:55:26;10.70;99.90
29453;DHT22;16424;50.956;5.320;2024-03-02T08:57:52;10.90;99.90
29453;DHT22;16424;50.956;5.320;2024-03-02T09:00:18;11.20;99.90
29453;DHT22;16424;50.956;5.320;2024-03-02T09:02:44;10.80;99.90
29453;DHT22;16424;50.956;5.320;2024-03-02T09:05:10;10.80;99.90
29453;DHT22;16424;50.956;5.320;2024-03-02T09:07:36;11.30;99.90
29453;DHT22;16424;50.956;5.320;2024-03-02T09:10:04;11.20;99.90
29453;DHT22;16424;50.956;5.320;2024-03-02T09:12:30;11.00;99.90
29453;DHT22;16424;50.956;5.320;2024-03-02T09:14:56;11.30;99.90
29453;DHT22;16424;50.956;5.320;2024-03-02T09:17:22;11.10;99.90
29453;DHT22;16424;50.956;5.320;2024-03-02T09:19:48;11.30;99.90
29453;DHT22;16424;50.956;5.320;2024-03-02T09:22:14;11.20;99.90
29453;DHT22;16424;50.956;5.320;2024-03-02T09:24:40;11.30;99.90
29453;DHT22;16424;50.956;5.320;2024-03-02T09:27:05;11.60;99.90
29453;DHT22;16424;50.956;5.320;2024-03-02T09:29:31;11.40;99.90
29453;DHT22;16424;50.956;5.320;2024-03-02T09:31:56;11.90;99.90
29453;DHT22;16424;50.956;5.320;2024-03-02T09:34:22;12.50;99.90
29453;DHT22;16424;50.956;5.320;2024-03-02T09:36:49;12.30;99.90
29453;DHT22;16424;50.956;5.320;2024-03-02T09:39:17;11.80;99.90
29453;DHT22;16424;50.956;5.320;2024-03-02T09:41:43;12.10;99.90
29453;DHT22;16424;50.956;5.320;2024-03-02T09:44:09;12.30;99.90
29453;DHT22;16424;50.956;5.320;2024-03-02T09:46:35;12.00;99.90
29453;DHT22;16424;50.956;5.320;2024-03-02T09:49:02;11.70;99.90
29453;DHT22;16424;50.956;5.320;2024-03-02T09:51:28;11.00;99.90
29453;DHT22;16424;50.956;5.320;2024-03-02T09:53:55;11.10;99.90
29453;DHT22;16424;50.956;5.320;2024-03-02T09:56:22;11.00;99.90
29453;DHT22;16424;50.956;5.320;2024-03-02T09:58:48;11.10;99.90
29453;DHT22;16424;50.956;5.320;2024-03-02T10:01:13;11.20;99.90
29453;DHT22;16424;50.956;5.320;2024-03-02T10:03:39;11.20;99.90
29453;DHT22;16424;50.956;5.320;2024-03-02T10:06:25;11.10;99.90
29453;DHT22;16424;50.956;5.320;2024-03-02T10:08:51;11.30;99.90
29453;DHT22;16424;50.956;5.320;2024-03-02T10:11:31;11.30;99.90
29453;DHT22;16424;50.956;5.320;2024-03-02T10:14:08;11.20;99.90
29453;DHT22;16424;50.956;5.320;2024-03-02T10:16:43;11.40;99.90
29453;DHT22;16424;50.956;5.320;2024-03-02T10:21:46;11.30;99.90
29453;DHT22;16424;50.956;5.320;2024-03-02T10:24:11;11.20;99.90
29453;DHT22;16424;50.956;5.320;2024-03-02T10:26:38;11.20;99.90
29453;DHT22;16424;50.956;5.320;2024-03-02T10:29:04;11.10;99.90
29453;DHT22;16424;50.956;5.320;2024-03-02T10:31:30;11.10;99.90
29453;DHT22;16424;50.956;5.320;2024-03-02T10:33:57;11.20;99.90
29453;DHT22;16424;50.956;5.320;2024-03-02T10:36:22;11.20;99.90
29453;DHT22;16424;50.956;5.320;2024-03-02T10:38:49;11.40;99.90
29453;DHT22;16424;50.956;5.320;2024-03-02T10:41:18;11.30;99.90
29453;DHT22;16424;50.956;5.320;2024-03-02T10:43:45;11.50;99.90
29453;DHT22;16424;50.956;5.320;2024-03-02T10:46:12;11.70;99.90
29453;DHT22;16424;50.956;5.320;2024-03-02T10:48:40;11.80;99.90
29453;DHT22;16424;50.956;5.320;2024-03-02T10:51:06;12.00;99.90
29453;DHT22;16424;50.956;5.320;2024-03-02T10:53:32;12.30;99.90
29453;DHT22;16424;50.956;5.320;2024-03-02T10:55:58;12.20;99.90
29453;DHT22;16424;50.956;5.320;2024-03-02T10:58:32;12.20;99.90
29453;DHT22;16424;50.956;5.320;2024-03-02T11:01:04;12.10;99.90
29453;DHT22;16424;50.956;5.320;2024-03-02T11:03:33;12.20;99.90
29453;DHT22;16424;50.956;5.320;2024-03-02T11:06:00;12.00;99.90
29453;DHT22;16424;50.956;5.320;2024-03-02T11:08:31;12.00;99.90
29453;DHT22;16424;50.956;5.320;2024-03-02T11:11:06;12.10;99.90
29453;DHT22;16424;50.956;5.320;2024-03-02T11:13:33;12.20;99.90
29453;DHT22;16424;50.956;5.320;2024-03-02T11:16:17;12.30;99.90
29453;DHT22;16424;50.956;5.320;2024-03-02T11:18:48;12.20;99.90
29453;DHT22;16424;50.956;5.320;2024-03-02T11:21:15;12.20;99.90
29453;DHT22;16424;50.956;5.320;2024-03-02T11:23:42;12.50;99.90
29453;DHT22;16424;50.956;5.320;2024-03-02T11:28:44;12.30;99.90
29453;DHT22;16424;50.956;5.320;2024-03-02T11:31:10;12.40;99.90
29453;DHT22;16424;50.956;5.320;2024-03-02T11:33:36;12.40;99.90
29453;DHT22;16424;50.956;5.320;2024-03-02T11:36:02;12.40;99.90
29453;DHT22;16424;50.956;5.320;2024-03-02T11:38:30;12.40;99.90
29453;DHT22;16424;50.956;5.320;2024-03-02T11:40:56;12.30;99.90
29453;DHT22;16424;50.956;5.320;2024-03-02T11:43:22;12.50;99.90
29453;DHT22;16424;50.956;5.320;2024-03-02T11:45:57;12.60;99.90
29453;DHT22;16424;50.956;5.320;2024-03-02T11:48:25;12.70;99.90
29453;DHT22;16424;50.956;5.320;2024-03-02T11:50:51;12.90;99.90
29453;DHT22;16424;50.956;5.320;2024-03-02T11:53:17;12.90;99.90
29453;DHT22;16424;50.956;5.320;2024-03-02T11:55:44;13.00;99.90
29453;DHT22;16424;50.956;5.320;2024-03-02T11:58:14;12.80;99.90
29453;DHT22;16424;50.956;5.320;2024-03-02T12:00:40;13.00;99.90
29453;DHT22;16424;50.956;5.320;2024-03-02T12:03:07;13.00;99.90
29453;DHT22;16424;50.956;5.320;2024-03-02T12:05:34;13.00;99.90
29453;DHT22;16424;50.956;5.320;2024-03-02T12:08:02;13.20;99.90
29453;DHT22;16424;50.956;5.320;2024-03-02T12:10:29;13.10;99.90
29453;DHT22;16424;50.956;5.320;2024-03-02T12:13:06;13.30;99.90
29453;DHT22;16424;50.956;5.320;2024-03-02T12:15:37;13.50;99.90
29453;DHT22;16424;50.956;5.320;2024-03-02T12:18:03;13.30;99.90
29453;DHT22;16424;50.956;5.320;2024-03-02T12:20:30;13.30;99.90
29453;DHT22;16424;50.956;5.320;2024-03-02T12:22:59;13.30;99.90
29453;DHT22;16424;50.956;5.320;2024-03-02T12:25:26;13.20;99.90
29453;DHT22;16424;50.956;5.320;2024-03-02T12:27:57;13.20;99.90
29453;DHT22;16424;50.956;5.320;2024-03-02T12:30:23;13.40;99.90
29453;DHT22;16424;50.956;5.320;2024-03-02T12:32:51;13.70;99.90
29453;DHT22;16424;50.956;5.320;2024-03-02T12:35:18;13.90;99.90
29453;DHT22;16424;50.956;5.320;2024-03-02T12:37:47;13.90;99.90
29453;DHT22;16424;50.956;5.320;2024-03-02T12:40:14;13.80;99.90
29453;DHT22;16424;50.956;5.320;2024-03-02T12:42:40;13.80;99.90
29453;DHT22;16424;50.956;5.320;2024-03-02T12:45:08;13.60;99.90
29453;DHT22;16424;50.956;5.320;2024-03-02T12:47:34;13.80;99.90
29453;DHT22;16424;50.956;5.320;2024-03-02T12:50:00;13.90;99.90
29453;DHT22;16424;50.956;5.320;2024-03-02T12:52:26;14.00;99.90
29453;DHT22;16424;50.956;5.320;2024-03-02T12:54:52;13.90;99.90
29453;DHT22;16424;50.956;5.320;2024-03-02T12:57:21;13.90;99.90
29453;DHT22;16424;50.956;5.320;2024-03-02T12:59:47;13.90;99.90
29453;DHT22;16424;50.956;5.320;2024-03-02T13:02:19;13.70;99.90
29453;DHT22;16424;50.956;5.320;2024-03-02T13:04:52;13.80;99.90
29453;DHT22;16424;50.956;5.320;2024-03-02T13:07:19;13.50;99.90
29453;DHT22;16424;50.956;5.320;2024-03-02T13:09:45;13.50;99.90
29453;DHT22;16424;50.956;5.320;2024-03-02T13:12:11;13.60;99.90
29453;DHT22;16424;50.956;5.320;2024-03-02T13:14:37;13.70;99.90
29453;DHT22;16424;50.956;5.320;2024-03-02T13:17:03;13.90;99.90
29453;DHT22;16424;50.956;5.320;2024-03-02T13:19:30;13.80;99.90
29453;DHT22;16424;50.956;5.320;2024-03-02T13:21:57;13.70;99.90
29453;DHT22;16424;50.956;5.320;2024-03-02T13:24:23;13.80;99.90
29453;DHT22;16424;50.956;5.320;2024-03-02T13:26:54;13.90;99.90
29453;DHT22;16424;50.956;5.320;2024-03-02T13:29:22;13.90;99.90
29453;DHT22;16424;50.956;5.320;2024-03-02T13:31:47;14.00;99.90
29453;DHT22;16424;50.956;5.320;2024-03-02T13:34:14;14.00;99.90
29453;DHT22;16424;50.956;5.320;2024-03-02T13:36:39;14.00;99.90
29453;DHT22;16424;50.956;5.320;2024-03-02T13:39:05;14.10;99.90
29453;DHT22;16424;50.956;5.320;2024-03-02T13:41:34;14.30;99.90
29453;DHT22;16424;50.956;5.320;2024-03-02T13:44:00;14.20;99.90
29453;DHT22;16424;50.956;5.320;2024-03-02T13:46:27;14.00;99.90
29453;DHT22;16424;50.956;5.320;2024-03-02T13:48:53;13.80;99.90
29453;DHT22;16424;50.956;5.320;2024-03-02T13:51:19;13.70;99.90
29453;DHT22;16424;50.956;5.320;2024-03-02T13:53:45;13.70;99.90
29453;DHT22;16424;50.956;5.320;2024-03-02T13:56:10;13.90;99.90
29453;DHT22;16424;50.956;5.320;2024-03-02T13:58:37;13.90;99.90
29453;DHT22;16424;50.956;5.320;2024-03-02T14:01:03;13.90;99.90
29453;DHT22;16424;50.956;5.320;2024-03-02T14:03:30;13.90;99.90
29453;DHT22;16424;50.956;5.320;2024-03-02T14:05:56;13.90;99.90
29453;DHT22;16424;50.956;5.320;2024-03-02T14:08:22;13.90;99.90
29453;DHT22;16424;50.956;5.320;2024-03-02T14:10:48;13.90;99.90
29453;DHT22;16424;50.956;5.320;2024-03-02T14:13:14;13.90;99.90
29453;DHT22;16424;50.956;5.320;2024-03-02T14:15:41;14.00;99.90
29453;DHT22;16424;50.956;5.320;2024-03-02T14:18:07;14.20;99.90
29453;DHT22;16424;50.956;5.320;2024-03-02T14:20:35;14.30;99.90
29453;DHT22;16424;50.956;5.320;2024-03-02T14:23:01;14.40;99.90
29453;DHT22;16424;50.956;5.320;2024-03-02T14:25:28;14.30;99.90
29453;DHT22;16424;50.956;5.320;2024-03-02T14:27:57;14.40;99.90
29453;DHT22;16424;50.956;5.320;2024-03-02T14:30:23;14.40;99.90
29453;DHT22;16424;50.956;5.320;2024-03-02T14:32:49;14.00;99.90
29453;DHT22;16424;50.956;5.320;2024-03-02T14:35:15;13.90;99.90
29453;DHT22;16424;50.956;5.320;2024-03-02T14:37:40;13.80;99.90
29453;DHT22;16424;50.956;5.320;2024-03-02T14:40:07;13.80;99.90
29453;DHT22;16424;50.956;5.320;2024-03-02T14:42:35;13.90;99.90
29453;DHT22;16424;50.956;5.320;2024-03-02T14:45:01;14.00;99.90
29453;DHT22;16424;50.956;5.320;2024-03-02T14:47:29;14.10;99.90
29453;DHT22;16424;50.956;5.320;2024-03-02T14:49:56;14.10;99.90
29453;DHT22;16424;50.956;5.320;2024-03-02T14:52:22;14.00;99.90
29453;DHT22;16424;50.956;5.320;2024-03-02T14:54:48;14.00;99.90
29453;DHT22;16424;50.956;5.320;2024-03-02T14:57:13;13.90;99.90
29453;DHT22;16424;50.956;5.320;2024-03-02T14:59:39;13.80;99.90
29453;DHT22;16424;50.956;5.320;2024-03-02T15:02:07;13.80;99.90
29453;DHT22;16424;50.956;5.320;2024-03-02T15:04:33;13.90;99.90
29453;DHT22;16424;50.956;5.320;2024-03-02T15:06:59;13.90;99.90
29453;DHT22;16424;50.956;5.320;2024-03-02T15:09:25;13.80;99.90
29453;DHT22;16424;50.956;5.320;2024-03-02T15:11:50;13.80;99.90
29453;DHT22;16424;50.956;5.320;2024-03-02T15:14:16;13.80;99.90
29453;DHT22;16424;50.956;5.320;2024-03-02T15:16:42;13.80;99.90
29453;DHT22;16424;50.956;5.320;2024-03-02T15:19:08;13.80;99.90
29453;DHT22;16424;50.956;5.320;2024-03-02T15:21:33;13.70;99.90
29453;DHT22;16424;50.956;5.320;2024-03-02T15:23:59;13.60;99.90
29453;DHT22;16424;50.956;5.320;2024-03-02T15:26:25;13.60;99.90
29453;DHT22;16424;50.956;5.320;2024-03-02T15:28:51;13.60;99.90
29453;DHT22;16424;50.956;5.320;2024-03-02T15:31:18;13.70;99.90
29453;DHT22;16424;50.956;5.320;2024-03-02T15:33:44;13.70;99.90
29453;DHT22;16424;50.956;5.320;2024-03-02T15:36:10;13.70;99.90
29453;DHT22;16424;50.956;5.320;2024-03-02T15:38:35;13.70;99.90
29453;DHT22;16424;50.956;5.320;2024-03-02T15:41:03;13.60;99.90
29453;DHT22;16424;50.956;5.320;2024-03-02T15:43:29;13.50;99.90
29453;DHT22;16424;50.956;5.320;2024-03-02T15:45:56;13.40;99.90
29453;DHT22;16424;50.956;5.320;2024-03-02T15:48:22;13.50;99.90